MAD weather

Adolfo Suárez Madrid–Barajas Airport
Madrid, Madrid, Spain

Public forecast

Using degrees Celsius for public forecast. Weather courtesy of forecast.io.

METAR (pilot weather report)

Retrieved 2018/02/18 23:30 UTC (11 minutes ago):

LEMD 182330Z 04004KT 010V070 9999 FEW050 09/03 Q1020 NOSIG

TAF (pilot weather forecast)

Retrieved 2018/02/18 18:28 UTC (5 hours ago):

TAF LEMD 181700Z 1818/1924 02006KT 9999 FEW050 TX15/1915Z TN02/1906Z TEMPO 1912/1918 01010KT PROB30 TEMPO 1913/1918 01012G22KT